Time;durP1;ratioP1;P1;durP2;ratioP2;P2;SDS_P1;SDS_P2;PMS_P1;PMS_P2;Temp;Humidity;BMP_temperature;BMP_pressure;BME280_temperature;BME280_humidity;BME280_pressure;Samples;Min_cycle;Max_cycle;Signal;HPM_P1;HPM_P2
2022/01/24 00:01:20;;;;;;;27.35;12.05;;;;;;;-6.33;80.02;95772.63;701273;28;10003028;-92
2022/01/24 00:03:45;;;;;;;23.52;12.23;;;;;;;-6.18;79.91;95804.66;4998476;28;20585;-91
2022/01/24 00:06:14;;;;;;;19.50;10.60;;;;;;;-6.94;79.85;95698.00;4998935;28;20125;-91
2022/01/24 00:08:40;;;;;;;23.40;11.65;;;;;;;-7.60;79.65;95601.47;5016692;28;20037;-91
2022/01/24 00:11:10;;;;;;;26.50;12.77;;;;;;;-6.48;80.18;95799.97;4999326;28;20109;-92
2022/01/24 00:26:59;;;;;;;29.60;12.30;;;;;;;-6.87;81.42;95717.88;5016973;28;20045;-92
2022/01/24 00:29:26;;;;;;;27.80;13.25;;;;;;;-5.67;81.62;95872.59;5017261;28;20017;-92
2022/01/24 00:31:54;;;;;;;24.00;12.60;;;;;;;-8.09;80.23;95540.31;5006963;28;20060;-92
2022/01/24 00:34:25;;;;;;;27.93;12.93;;;;;;;-7.49;79.32;95628.75;5013261;28;20034;-92
2022/01/24 00:36:51;;;;;;;;;;;;;;;-5.78;79.85;95878.84;5004191;28;20097;-92
2022/01/24 00:39:18;;;;;;;26.07;12.90;;;;;;;-5.82;80.40;95879.31;5003311;28;19917;-92
2022/01/24 00:47:02;;;;;;;24.80;12.30;;;;;;;-6.44;80.35;95784.03;5018866;28;20038;-92
2022/01/24 00:54:54;;;;;;;25.97;12.17;;;;;;;-6.41;78.95;95773.41;5020417;28;20535;-92
2022/01/24 00:57:21;;;;;;;27.87;12.27;;;;;;;-8.55;79.01;95449.69;5001767;28;20026;-92
2022/01/24 00:59:47;;;;;;;31.88;11.77;;;;;;;-5.57;78.47;95914.63;5001505;28;20153;-91
2022/01/24 01:02:16;;;;;;;27.77;12.67;;;;;;;-5.51;79.12;95901.06;5017757;28;20045;-89
2022/01/24 01:07:27;;;;;;;26.23;12.75;;;;;;;-7.84;78.34;95512.00;5031543;28;20481;-90
2022/01/24 01:18:14;;;;;;;26.00;12.05;;;;;;;-5.99;79.14;95837.13;5017580;28;20121;-90
2022/01/24 01:23:20;;;;;;;24.92;12.48;;;;;;;-5.80;79.56;95882.56;5017001;28;20034;-89
2022/01/24 01:25:47;;;;;;;30.17;13.20;;;;;;;-6.53;79.34;95745.44;4999002;28;20056;-89
2022/01/24 01:28:14;;;;;;;35.85;14.52;;;;;;;-7.25;79.04;95635.81;5015843;28;20663;-90
2022/01/24 01:30:45;;;;;;;30.93;14.10;;;;;;;-7.51;78.08;95541.31;4999449;28;20030;-90
2022/01/24 01:35:56;;;;;;;;;;;;;;;-5.67;78.54;95881.16;5018406;28;20049;-90
2022/01/24 01:39:13;;;;;;;26.90;12.13;;;;;;;-8.53;78.09;95421.22;4999104;28;19925;-89
2022/01/24 01:55:38;;;;;;;27.87;12.47;;;;;;;-6.07;79.25;95831.94;5016915;28;20060;-90
2022/01/24 01:58:12;;;;;;;27.45;12.57;;;;;;;-8.01;78.82;95519.78;4998892;28;20101;-89
2022/01/24 02:00:57;;;;;;;20.60;10.27;;;;;;;-10.67;78.09;95063.88;2201373;28;10022804;-89
2022/01/24 02:03:31;;;;;;;40.23;15.27;;;;;;;-5.62;78.36;95885.84;3607316;28;10001250;-93
2022/01/24 02:05:58;;;;;;;35.70;14.75;;;;;;;-8.22;78.70;95505.50;3564515;28;10020779;-91
2022/01/24 02:08:33;;;;;;;41.22;15.27;;;;;;;-7.70;79.24;95584.50;1717744;28;10002011;-90
2022/01/24 02:11:00;;;;;;;33.08;12.70;;;;;;;-7.54;79.27;95605.19;4995268;28;20351;-90
2022/01/24 02:13:28;;;;;;;29.07;13.67;;;;;;;-6.74;79.62;95745.81;4995215;28;20057;-90
2022/01/24 02:26:05;;;;;;;30.08;13.02;;;;;;;-9.30;79.05;95361.03;4996307;28;20050;-90
2022/01/24 02:28:46;;;;;;;29.67;13.48;;;;;;;-6.16;78.76;95841.41;4995199;28;20030;-90
2022/01/24 02:33:45;;;;;;;35.50;15.55;;;;;;;-6.83;80.16;95778.50;4996872;28;20034;-90
2022/01/24 02:36:11;;;;;;;37.03;16.93;;;;;;;-8.72;79.70;95463.34;4996007;28;20043;-90
2022/01/24 02:49:45;;;;;;;35.97;14.50;;;;;;;-5.79;79.66;95910.78;4996883;28;20057;-91
2022/01/24 02:52:14;;;;;;;32.40;15.13;;;;;;;-6.32;78.42;95818.91;4994305;28;20501;-90
2022/01/24 02:54:40;;;;;;;35.00;14.67;;;;;;;-6.78;78.57;95742.72;4995470;28;20446;-91
2022/01/24 02:57:07;;;;;;;26.67;13.20;;;;;;;-7.14;77.46;95663.88;4996554;28;20111;-92
2022/01/24 02:59:33;;;;;;;33.40;14.93;;;;;;;-6.47;78.81;95817.88;4994945;28;20414;-92
2022/01/24 03:01:59;;;;;;;33.08;14.65;;;;;;;-7.65;79.30;95655.22;4995087;28;20026;-92
2022/01/24 03:04:25;;;;;;;31.38;14.57;;;;;;;-6.25;78.92;95861.22;4995351;28;20129;-92
2022/01/24 03:06:51;;;;;;;37.35;15.10;;;;;;;-8.06;78.16;95522.00;4994649;28;20041;-91
2022/01/24 03:09:16;;;;;;;36.63;15.20;;;;;;;-6.96;78.07;95723.94;4994941;28;20100;-91
2022/01/24 03:14:24;;;;;;;;;;;;;;;-5.70;78.67;95930.53;4995577;28;20126;-91
2022/01/24 03:16:51;;;;;;;36.93;15.57;;;;;;;-7.94;79.07;95598.03;4996816;28;19921;-91
2022/01/24 03:19:17;;;;;;;35.33;13.80;;;;;;;-6.68;78.59;95805.34;4994533;28;20101;-92
2022/01/24 03:21:43;;;;;;;34.40;15.37;;;;;;;-6.69;79.23;95819.19;4995054;28;20034;-91
2022/01/24 03:24:10;;;;;;;32.13;14.38;;;;;;;-6.37;79.04;95859.88;4994523;28;20042;-91
2022/01/24 03:26:35;;;;;;;31.47;14.60;;;;;;;-5.91;79.21;95927.56;4996344;28;20125;-91
2022/01/24 03:29:02;;;;;;;35.50;16.33;;;;;;;-9.03;78.56;95426.94;4994079;28;20132;-92
2022/01/24 03:31:28;;;;;;;32.67;13.77;;;;;;;-6.06;79.28;95917.00;4994259;28;20473;-91
2022/01/24 03:33:53;;;;;;;31.83;15.20;;;;;;;-8.08;78.93;95583.09;4994524;28;20046;-91
2022/01/24 03:36:19;;;;;;;34.10;14.47;;;;;;;-8.23;78.89;95523.63;4994310;28;20030;-91
2022/01/24 03:38:44;;;;;;;47.90;17.70;;;;;;;-6.51;79.25;95808.03;4995458;28;20031;-91
2022/01/24 03:41:10;;;;;;;29.95;14.13;;;;;;;-6.89;78.67;95755.88;4995547;28;20038;-91
2022/01/24 03:43:36;;;;;;;33.65;15.82;;;;;;;-5.81;78.64;95891.28;4993986;28;20069;-91
2022/01/24 03:49:09;;;;;;;32.40;15.95;;;;;;;-7.20;77.85;95665.31;4972604;28;20073;-92
2022/01/24 03:51:35;;;;;;;34.40;14.00;;;;;;;-5.38;77.95;95940.19;5017519;23;20121;-80
2022/01/24 03:54:01;;;;;;;35.95;14.73;;;;;;;-5.79;77.81;95872.03;5012396;28;20484;-80
2022/01/24 03:56:27;;;;;;;32.50;15.93;;;;;;;-5.52;77.40;95944.19;5009678;28;20033;-80
2022/01/24 03:58:52;;;;;;;36.90;16.27;;;;;;;-5.19;76.69;95976.16;5012319;28;20045;-81
2022/01/24 04:01:18;;;;;;;43.87;18.30;;;;;;;-5.64;76.64;95909.25;5012135;28;20100;-81
2022/01/24 04:03:43;;;;;;;49.75;23.58;;;;;;;-5.07;76.55;95982.66;4966193;28;20049;-81
2022/01/24 04:06:16;;;;;;;47.05;24.53;;;;;;;-5.51;77.22;95952.75;549950;28;10022858;-81
2022/01/24 04:08:42;;;;;;;51.10;25.40;;;;;;;-5.31;76.50;95964.47;5010791;28;20278;-80
2022/01/24 04:11:11;;;;;;;46.27;23.73;;;;;;;-5.18;76.55;95967.41;5013138;28;20030;-80
2022/01/24 04:13:39;;;;;;;47.53;23.42;;;;;;;-4.90;76.03;96003.38;5015326;28;20030;-81
2022/01/24 04:18:54;;;;;;;45.22;22.48;;;;;;;-4.96;75.26;95968.63;5016278;28;20109;-81
2022/01/24 04:23:58;;;;;;;39.55;20.08;;;;;;;-4.99;73.87;95986.22;5016096;28;20034;-80
2022/01/24 04:26:24;;;;;;;44.03;18.88;;;;;;;-5.09;73.82;95971.63;5014604;28;20519;-81
2022/01/24 04:28:50;;;;;;;33.38;16.33;;;;;;;-5.06;73.90;96001.56;5015598;28;20022;-80
2022/01/24 04:31:17;;;;;;;34.83;15.48;;;;;;;-5.36;73.40;95958.16;5015583;28;20030;-81
2022/01/24 04:33:42;;;;;;;34.20;16.67;;;;;;;-5.40;72.76;95957.63;5015957;28;20480;-81
2022/01/24 04:36:08;;;;;;;33.05;15.52;;;;;;;-5.54;73.35;95942.72;5014478;28;20026;-81
2022/01/24 04:38:34;;;;;;;33.85;16.05;;;;;;;-4.98;73.02;96042.97;5014179;28;20029;-80
2022/01/24 04:41:04;;;;;;;34.92;16.10;;;;;;;-5.09;73.10;96051.00;5013998;28;20061;-80
2022/01/24 04:51:26;;;;;;;31.55;16.30;;;;;;;-5.44;71.87;95969.28;5014973;28;20064;-81
2022/01/24 04:54:25;;;;;;;34.47;17.05;;;;;;;-5.26;72.81;96023.44;5014600;28;20562;-81
2022/01/24 04:56:41;;;;;;;38.35;17.08;;;;;;;-5.01;72.79;96040.69;5014896;28;20033;-81
2022/01/24 04:59:07;;;;;;;32.92;17.35;;;;;;;-5.41;71.90;95997.38;5013521;28;20026;-81
2022/01/24 05:01:33;;;;;;;39.17;17.58;;;;;;;-5.08;72.06;96045.69;5015916;28;20542;-82
2022/01/24 05:03:58;;;;;;;39.10;18.33;;;;;;;-5.14;72.23;96043.72;5015427;28;20038;-81
2022/01/24 05:06:24;;;;;;;46.42;19.02;;;;;;;-5.16;72.28;96039.66;5014500;28;20084;-82
2022/01/24 05:08:49;;;;;;;41.78;18.48;;;;;;;-5.72;72.09;96006.59;5015618;28;20037;-81
2022/01/24 05:11:36;;;;;;;36.47;17.77;;;;;;;-6.09;73.17;95993.94;5013586;28;20439;-81
2022/01/24 05:24:43;;;;;;;43.38;17.40;;;;;;;-5.35;71.16;96074.34;5015181;28;20030;-81
2022/01/24 05:27:08;;;;;;;42.45;16.48;;;;;;;-5.50;70.84;96034.50;5013003;28;20036;-82
2022/01/24 05:29:34;;;;;;;29.67;14.40;;;;;;;-5.42;70.51;96049.25;5013479;28;20060;-81
2022/01/24 05:32:00;;;;;;;32.63;14.88;;;;;;;-5.27;70.76;96104.59;5013417;28;20412;-82
2022/01/24 05:34:25;;;;;;;39.72;14.10;;;;;;;-5.79;70.86;96001.22;5013642;28;20454;-82
2022/01/24 05:36:51;;;;;;;36.13;14.32;;;;;;;-5.27;69.88;96105.41;5013832;28;20041;-81
2022/01/24 05:39:17;;;;;;;34.17;14.07;;;;;;;-5.26;70.13;96117.34;5013024;28;20092;-82
2022/01/24 05:41:42;;;;;;;36.05;13.90;;;;;;;-6.04;69.72;95987.41;5014124;28;20033;-82
2022/01/24 05:44:08;;;;;;;37.13;13.13;;;;;;;-5.64;69.54;96056.53;5014217;28;20042;-81
2022/01/24 05:46:35;;;;;;;32.58;12.48;;;;;;;-5.60;69.45;96065.63;5012577;28;20100;-81
2022/01/24 05:49:01;;;;;;;35.27;11.87;;;;;;;-6.01;69.85;95976.75;5013897;28;20600;-81
2022/01/24 05:51:28;;;;;;;32.17;12.25;;;;;;;-4.99;69.78;96125.91;5013492;28;20525;-81
2022/01/24 05:53:54;;;;;;;25.10;11.77;;;;;;;-5.67;68.63;96020.69;5013244;28;20472;-81
2022/01/24 05:56:20;;;;;;;25.05;11.32;;;;;;;-5.35;68.66;96076.13;5013172;28;20038;-81
2022/01/24 05:58:46;;;;;;;24.65;9.98;;;;;;;-4.88;68.62;96141.97;5014267;28;20414;-82
2022/01/24 06:01:11;;;;;;;26.65;11.00;;;;;;;-5.83;68.46;95989.59;5012687;28;20038;-81
2022/01/24 06:03:37;;;;;;;31.50;12.52;;;;;;;-5.08;69.07;96104.38;5012665;28;20044;-81
2022/01/24 06:06:02;;;;;;;19.83;8.25;;;;;;;-5.16;66.45;96123.22;5012350;28;20034;-81
2022/01/24 06:08:28;;;;;;;20.40;9.05;;;;;;;-5.01;66.52;96138.19;5013499;28;20062;-83
2022/01/24 06:10:58;;;;;;;16.67;7.93;;;;;;;-5.25;66.56;96118.16;5031245;28;20034;-81
2022/01/24 06:13:24;;;;;;;16.20;7.90;;;;;;;-5.48;66.13;96077.31;5016357;28;20049;-82
2022/01/24 06:15:49;;;;;;;15.90;8.07;;;;;;;-5.66;66.41;96030.06;5014159;28;20413;-81
2022/01/24 06:18:16;;;;;;;18.52;9.18;;;;;;;-5.26;67.42;96114.75;5014851;28;20038;-82
2022/01/24 06:20:45;;;;;;;20.63;10.00;;;;;;;-5.26;66.60;96124.28;5012123;28;20041;-82
2022/01/24 06:23:14;;;;;;;21.17;9.90;;;;;;;-5.12;66.95;96137.50;5012098;28;20042;-82
2022/01/24 06:25:40;;;;;;;21.02;8.93;;;;;;;-5.17;65.51;96186.25;5012387;28;20037;-81
2022/01/24 06:28:06;;;;;;;13.52;7.13;;;;;;;-5.32;64.56;96163.69;5011562;28;20556;-82
2022/01/24 06:30:31;;;;;;;20.50;9.90;;;;;;;-5.37;64.48;96103.88;5011749;28;20429;-80
2022/01/24 06:32:56;;;;;;;18.88;8.80;;;;;;;-5.12;65.78;96127.16;5010851;28;20034;-79
2022/01/24 06:35:22;;;;;;;25.42;9.73;;;;;;;-4.64;66.05;96187.84;5012858;28;20041;-80
2022/01/24 06:37:48;;;;;;;20.95;9.13;;;;;;;-4.54;65.95;96188.53;5013733;28;20038;-79
2022/01/24 06:40:13;;;;;;;22.65;9.02;;;;;;;-4.99;64.61;96128.50;5010907;28;20045;-79
2022/01/24 06:42:39;;;;;;;25.15;9.93;;;;;;;-4.53;64.20;96186.78;5011313;28;20113;-79
2022/01/24 06:45:05;;;;;;;20.15;8.50;;;;;;;-5.18;63.08;96080.38;5011280;28;20101;-79
2022/01/24 06:47:31;;;;;;;17.67;9.35;;;;;;;-4.58;64.15;96186.44;5017739;28;20040;-81
2022/01/24 06:49:56;;;;;;;21.83;10.32;;;;;;;-4.35;64.20;96197.84;5017547;28;20560;-81
2022/01/24 06:52:22;;;;;;;21.52;9.63;;;;;;;-5.39;63.52;96016.13;5016088;28;20069;-81
2022/01/24 06:54:50;;;;;;;19.15;8.98;;;;;;;-4.63;62.61;96142.88;5014930;28;20030;-82
2022/01/24 06:57:16;;;;;;;20.38;8.60;;;;;;;-4.26;61.78;96220.19;5014563;28;20032;-82
2022/01/24 06:59:43;;;;;;;21.67;9.20;;;;;;;-4.16;61.89;96202.75;5014066;28;20486;-81
2022/01/24 07:02:10;;;;;;;24.35;10.57;;;;;;;-4.23;62.27;96188.00;5012578;28;20033;-81
2022/01/24 07:04:39;;;;;;;20.50;9.88;;;;;;;-4.00;62.92;96196.81;5011666;28;20133;-82
2022/01/24 07:07:07;;;;;;;20.20;9.45;;;;;;;-4.30;61.15;96154.16;5013138;28;20105;-82
2022/01/24 07:09:32;;;;;;;19.55;10.70;;;;;;;-4.98;60.52;96060.28;5011120;28;20038;-81
2022/01/24 07:11:58;;;;;;;18.67;8.38;;;;;;;-4.11;60.67;96197.91;5011461;28;20053;-83
2022/01/24 07:14:24;;;;;;;22.65;10.18;;;;;;;-3.76;60.77;96214.19;5011086;28;20474;-82
2022/01/24 07:19:22;;;;;;;27.42;11.68;;;;;;;-3.70;59.81;96223.94;5012744;28;20112;-82
2022/01/24 07:21:47;;;;;;;20.17;10.85;;;;;;;-4.18;59.84;96142.53;5012750;28;20068;-81
2022/01/24 07:24:13;;;;;;;18.00;8.38;;;;;;;-3.76;59.16;96221.97;5011094;28;20099;-82
2022/01/24 07:26:39;;;;;;;17.70;8.52;;;;;;;-3.88;59.88;96204.13;5012743;28;20087;-82
2022/01/24 07:29:04;;;;;;;16.52;7.82;;;;;;;-4.03;60.39;96172.03;5012268;28;20053;-82
2022/01/24 07:31:30;;;;;;;20.00;9.07;;;;;;;-3.46;60.58;96236.13;5011063;28;20441;-81
2022/01/24 07:33:55;;;;;;;21.20;9.27;;;;;;;-4.48;59.86;96124.97;5012422;28;20041;-81
2022/01/24 07:36:22;;;;;;;17.63;9.10;;;;;;;-4.90;59.39;96011.97;5012608;28;20414;-82
2022/01/24 07:38:48;;;;;;;16.95;8.77;;;;;;;-3.38;59.32;96255.09;5010610;28;20041;-80
2022/01/24 07:41:16;;;;;;;25.08;9.75;;;;;;;-3.33;59.76;96254.59;5011849;28;20412;-81
2022/01/24 07:43:42;;;;;;;15.65;7.78;;;;;;;-3.59;60.63;96259.94;5013090;28;20048;-82
2022/01/24 07:46:07;;;;;;;19.73;8.75;;;;;;;-4.15;60.76;96204.38;5016355;28;20105;-82
2022/01/24 07:48:33;;;;;;;21.88;9.30;;;;;;;-4.19;61.87;96244.50;5014661;28;20038;-81
2022/01/24 07:50:58;;;;;;;17.35;8.52;;;;;;;-4.52;63.22;96191.81;5016239;28;20066;-81
2022/01/24 07:53:24;;;;;;;21.63;9.45;;;;;;;-4.37;63.26;96230.84;5014206;28;20497;-80
2022/01/24 07:55:51;;;;;;;19.70;11.00;;;;;;;-4.10;63.59;96274.66;5015472;28;20040;-84
2022/01/24 07:58:17;;;;;;;27.77;10.80;;;;;;;-4.28;64.21;96266.19;5031430;28;20038;-82
2022/01/24 08:00:42;;;;;;;23.80;9.80;;;;;;;-4.19;63.25;96233.34;5015521;28;20061;-82
2022/01/24 08:03:11;;;;;;;17.90;9.30;;;;;;;-4.07;64.53;96265.78;1403493;28;10022810;-82
2022/01/24 08:05:37;;;;;;;20.30;9.55;;;;;;;-3.84;64.09;96277.19;3977941;28;10001368;-81
2022/01/24 08:08:04;;;;;;;24.20;11.02;;;;;;;-4.67;64.47;96157.94;5031128;28;20177;-82
2022/01/24 08:10:30;;;;;;;23.73;10.00;;;;;;;-4.50;63.91;96212.38;5015668;28;20048;-80
2022/01/24 08:12:55;;;;;;;18.67;9.88;;;;;;;-4.00;64.25;96292.69;5016577;28;20038;-81
2022/01/24 08:15:21;;;;;;;28.05;11.63;;;;;;;-4.20;64.62;96232.56;5016023;28;20033;-82
2022/01/24 08:17:47;;;;;;;23.38;10.65;;;;;;;-3.73;64.40;96294.22;5016828;28;20033;-82
2022/01/24 08:20:14;;;;;;;23.95;10.88;;;;;;;-4.11;65.03;96265.28;5015648;28;20149;-81
2022/01/24 08:22:40;;;;;;;19.23;10.60;;;;;;;-3.79;64.30;96246.41;5017845;28;20045;-81
2022/01/24 08:25:07;;;;;;;18.67;9.40;;;;;;;-3.42;64.66;96303.06;5019021;28;20480;-82
2022/01/24 08:27:34;;;;;;;21.83;9.80;;;;;;;-3.59;63.78;96285.84;5031478;28;20544;-81
2022/01/24 08:30:01;;;;;;;21.63;9.45;;;;;;;-3.88;63.45;96200.72;5016197;28;20046;-82
2022/01/24 08:32:26;;;;;;;19.17;9.50;;;;;;;-3.14;63.03;96301.00;5017598;28;20029;-81
2022/01/24 08:34:54;;;;;;;19.08;9.40;;;;;;;-2.96;62.10;96319.81;5016487;28;20053;-82
2022/01/24 08:37:19;;;;;;;20.13;9.90;;;;;;;-3.20;61.94;96286.88;5017288;28;20390;-81
2022/01/24 08:39:45;;;;;;;24.88;11.13;;;;;;;-3.38;61.73;96283.63;5015547;28;20120;-79
2022/01/24 08:42:30;;;;;;;22.58;10.20;;;;;;;-3.69;62.54;96298.94;5015226;28;20505;-80
2022/01/24 08:47:22;;;;;;;27.63;10.70;;;;;;;-4.48;63.41;96162.03;5015711;28;20037;-80
2022/01/24 08:49:48;;;;;;;20.58;10.95;;;;;;;-3.35;63.77;96339.53;5013250;28;20111;-81
2022/01/24 08:52:13;;;;;;;20.88;10.50;;;;;;;-3.37;62.36;96279.25;5030907;28;20529;-81
2022/01/24 08:54:42;;;;;;;21.65;9.68;;;;;;;-3.65;62.01;96276.09;5015712;28;20069;-80
2022/01/24 08:57:13;;;;;;;15.93;9.07;;;;;;;-3.21;61.15;96339.75;5012929;28;20651;-80
2022/01/24 08:59:39;;;;;;;20.88;9.55;;;;;;;-2.91;61.39;96329.72;5014712;28;20036;-81
2022/01/24 09:02:10;;;;;;;24.35;10.45;;;;;;;-2.77;61.41;96308.28;5016118;28;20049;-81
2022/01/24 09:04:36;;;;;;;17.63;8.85;;;;;;;-3.01;60.85;96306.50;5013719;28;20099;-81
2022/01/24 09:07:04;;;;;;;17.95;9.35;;;;;;;-3.18;61.10;96302.28;5014198;28;20046;-81
2022/01/24 09:09:34;;;;;;;24.67;11.25;;;;;;;-3.18;61.02;96333.41;5015084;28;20030;-81
2022/01/24 09:12:00;;;;;;;21.60;9.98;;;;;;;-2.87;61.49;96329.22;5015640;28;20112;-82
2022/01/24 09:14:26;;;;;;;20.75;9.93;;;;;;;-3.32;60.24;96249.25;5030493;28;20037;-80
2022/01/24 09:16:51;;;;;;;19.45;10.82;;;;;;;-2.45;60.82;96342.03;5013491;28;20410;-81
2022/01/24 09:19:17;;;;;;;17.80;9.00;;;;;;;-2.93;60.14;96279.75;5012926;28;20030;-80
2022/01/24 09:21:43;;;;;;;19.33;9.45;;;;;;;-3.05;58.83;96240.31;5014249;28;20667;-80
2022/01/24 09:24:08;;;;;;;21.80;9.90;;;;;;;-2.74;58.03;96264.63;5029784;28;20081;-81
2022/01/24 09:26:33;;;;;;;16.15;9.45;;;;;;;-2.78;58.61;96229.59;5017488;28;20100;-82
2022/01/24 09:28:59;;;;;;;18.38;10.27;;;;;;;-2.48;57.87;96292.19;5016223;28;20041;-81
2022/01/24 09:31:25;;;;;;;21.88;10.68;;;;;;;-2.85;60.27;96305.69;5013044;28;20030;-80
2022/01/24 09:33:52;;;;;;;24.40;11.40;;;;;;;-3.12;60.22;96319.78;5012506;28;20362;-81
2022/01/24 09:36:18;;;;;;;20.98;10.80;;;;;;;-3.52;60.31;96258.31;5013829;28;20044;-82
2022/01/24 09:38:43;;;;;;;24.20;10.30;;;;;;;-3.47;60.25;96266.41;5013137;28;20025;-81
2022/01/24 09:41:12;;;;;;;20.52;9.90;;;;;;;-3.63;60.23;96254.25;5014189;28;20042;-80
2022/01/24 09:43:38;;;;;;;16.90;8.23;;;;;;;-2.80;58.03;96342.34;5013528;28;20042;-82
2022/01/24 09:46:04;;;;;;;20.73;10.30;;;;;;;-2.90;57.63;96339.13;5014523;28;20029;-81
2022/01/24 09:48:30;;;;;;;18.60;8.95;;;;;;;-3.85;58.39;96202.19;5013007;28;20041;-82
2022/01/24 09:50:56;;;;;;;20.20;9.85;;;;;;;-3.64;58.14;96255.19;5013122;28;20140;-81
2022/01/24 09:53:24;;;;;;;21.65;11.10;;;;;;;-3.28;57.86;96333.56;5012787;28;20084;-81
2022/01/24 09:55:51;;;;;;;22.27;9.75;;;;;;;-3.24;57.18;96331.47;5014102;28;20049;-81
2022/01/24 09:58:17;;;;;;;18.55;9.15;;;;;;;-3.55;57.16;96269.00;5013233;28;20041;-81
2022/01/24 10:00:43;;;;;;;24.13;10.77;;;;;;;-2.77;56.65;96327.28;5013188;28;20041;-82
2022/01/24 10:03:14;;;;;;;18.45;9.40;;;;;;;-2.70;55.94;96324.03;5014666;28;20037;-81
2022/01/24 10:05:42;;;;;;;19.70;10.05;;;;;;;-2.87;56.35;96246.16;5012993;28;20034;-82
2022/01/24 10:08:13;;;;;;;22.05;10.00;;;;;;;-2.31;55.24;96316.34;5028967;28;20045;-82
2022/01/24 10:10:49;;;;;;;;;;;;;;;-2.55;55.33;96320.59;5014354;28;20558;-80
2022/01/24 10:16:46;;;;;;;17.20;7.05;;;;;;;-2.65;53.01;96308.75;5014320;28;20538;-82
2022/01/24 10:19:14;;;;;;;17.80;8.52;;;;;;;-2.91;53.53;96314.16;5014414;28;20100;-82
2022/01/24 10:21:49;;;;;;;17.38;7.47;;;;;;;-3.11;54.96;96317.03;5012534;28;20095;-83
2022/01/24 10:24:26;;;;;;;17.63;8.32;;;;;;;-2.93;54.45;96314.31;4977663;28;20046;-83
2022/01/24 10:27:12;;;;;;;13.90;7.05;;;;;;;-2.69;53.20;96318.69;1125855;28;10022757;-82
2022/01/24 10:29:49;;;;;;;17.15;8.00;;;;;;;-2.39;53.33;96312.78;4681512;28;10001068;-81
2022/01/24 10:32:36;;;;;;;15.25;6.95;;;;;;;-2.68;52.58;96215.63;5028849;28;20149;-82
2022/01/24 10:35:23;;;;;;;13.43;7.38;;;;;;;-0.83;51.22;96309.25;5013492;28;20477;-82
2022/01/24 10:37:51;;;;;;;21.73;9.23;;;;;;;-0.15;49.58;96266.56;5014286;28;20080;-82
2022/01/24 10:40:49;;;;;;;16.55;7.88;;;;;;;0.76;47.75;96292.97;5014125;28;20543;-82
2022/01/24 10:43:25;;;;;;;18.48;7.95;;;;;;;0.74;45.71;96315.03;5012584;28;20037;-81
2022/01/24 10:45:53;;;;;;;16.20;7.00;;;;;;;0.15;46.05;96280.44;5014439;28;20029;-81
2022/01/24 10:48:29;;;;;;;17.73;8.18;;;;;;;-0.72;46.47;96251.53;5013375;28;20033;-82
2022/01/24 10:51:15;;;;;;;13.20;7.43;;;;;;;-0.52;48.65;96263.06;5014083;28;20049;-81
2022/01/24 10:53:43;;;;;;;17.55;9.13;;;;;;;-0.28;48.97;96305.50;5012908;28;20616;-82
2022/01/24 10:56:42;;;;;;;19.23;8.70;;;;;;;-0.31;50.79;96324.94;5014278;28;20030;-84
2022/01/24 10:59:22;;;;;;;15.75;8.65;;;;;;;-0.54;50.21;96186.88;5030537;28;20026;-85
2022/01/24 11:02:01;;;;;;;15.57;8.57;;;;;;;-0.49;49.08;96201.97;5030308;28;20041;-86
2022/01/24 11:04:28;;;;;;;18.77;8.52;;;;;;;0.00;48.94;96272.63;5013790;28;20060;-85
2022/01/24 11:06:56;;;;;;;15.27;8.13;;;;;;;-0.90;47.67;96272.69;5014655;28;20045;-86
2022/01/24 11:09:23;;;;;;;14.57;8.25;;;;;;;-0.91;48.22;96190.31;5013129;28;20026;-85
2022/01/24 11:12:11;;;;;;;15.45;8.45;;;;;;;-1.40;49.65;96220.38;5013196;28;20493;-85
2022/01/24 11:14:42;;;;;;;16.98;7.60;;;;;;;-0.92;49.68;96324.16;5021173;28;20025;-84
2022/01/24 11:17:10;;;;;;;23.02;9.38;;;;;;;-0.85;50.71;96321.66;5032526;28;20026;-84
2022/01/24 11:22:40;;;;;;;20.13;9.82;;;;;;;-1.30;49.89;96070.00;4987230;28;20046;-85
2022/01/24 11:25:08;;;;;;;21.30;10.15;;;;;;;-0.85;49.34;96103.69;5011816;28;20501;-86
2022/01/24 11:27:34;;;;;;;18.05;8.18;;;;;;;-0.66;49.32;96214.34;5012877;28;20038;-81
2022/01/24 11:30:07;;;;;;;24.90;9.35;;;;;;;-0.27;48.72;96260.19;5011725;28;20529;-80
2022/01/24 11:32:42;;;;;;;16.67;8.73;;;;;;;-0.12;47.96;96230.53;5014656;28;20029;-82
2022/01/24 11:35:09;;;;;;;14.90;7.50;;;;;;;0.17;46.01;96294.88;5012951;28;20037;-82
2022/01/24 11:37:43;;;;;;;19.00;9.20;;;;;;;0.58;46.12;96287.34;5012359;28;20054;-81
2022/01/24 11:40:19;;;;;;;23.65;10.65;;;;;;;0.21;44.06;96314.41;5010064;28;20076;-82
2022/01/24 11:42:47;;;;;;;19.70;8.55;;;;;;;-0.35;45.75;96304.59;5009905;28;20042;-82
2022/01/24 11:45:17;;;;;;;16.15;7.60;;;;;;;-0.55;46.05;96265.22;5013234;28;20034;-82
2022/01/24 11:47:46;;;;;;;15.48;8.15;;;;;;;-0.35;44.21;96244.66;5030611;28;20096;-81
2022/01/24 11:50:24;;;;;;;18.83;8.93;;;;;;;-0.06;44.79;96322.88;5011443;28;20026;-82
2022/01/24 11:52:56;;;;;;;20.85;8.15;;;;;;;-0.17;46.41;96324.13;4675528;28;10000940;-81
2022/01/24 11:55:36;;;;;;;19.98;9.10;;;;;;;0.04;45.57;96288.69;689686;28;10002071;-81
2022/01/24 11:58:06;;;;;;;25.33;9.50;;;;;;;-0.40;46.18;96324.19;5012171;28;20074;-81
2022/01/24 12:00:40;;;;;;;15.40;8.50;;;;;;;0.05;46.87;96327.66;5025082;28;20030;-81
2022/01/24 12:03:17;;;;;;;15.82;7.70;;;;;;;0.02;46.07;96244.53;5010548;28;20034;-82
2022/01/24 12:05:51;;;;;;;22.83;9.88;;;;;;;0.94;45.31;96328.31;5025909;28;20045;-80
2022/01/24 12:08:44;;;;;;;14.90;8.68;;;;;;;-0.11;45.82;96297.34;5010934;28;20500;-82
2022/01/24 12:11:27;;;;;;;17.42;7.65;;;;;;;-0.64;47.44;96324.41;5009219;28;20046;-81
2022/01/24 12:14:00;;;;;;;25.50;8.38;;;;;;;-0.77;47.33;96260.88;5026276;28;20038;-82
2022/01/24 12:16:45;;;;;;;16.75;7.43;;;;;;;-0.98;47.13;96251.91;5011231;28;20526;-83
2022/01/24 12:19:12;;;;;;;14.27;7.45;;;;;;;-0.72;46.31;96261.94;5011432;28;20057;-82
2022/01/24 12:21:40;;;;;;;21.90;7.85;;;;;;;-1.26;46.69;96201.38;5011058;28;20030;-81
2022/01/24 12:24:12;;;;;;;31.15;9.00;;;;;;;-0.83;47.42;96330.88;5011815;28;20481;-81
2022/01/24 12:26:43;;;;;;;40.72;10.23;;;;;;;-0.61;47.67;96282.34;5009080;28;20026;-82
2022/01/24 12:29:18;;;;;;;18.15;7.72;;;;;;;-0.38;47.38;96326.59;5009851;28;20045;-82
2022/01/24 12:31:50;;;;;;;25.60;8.45;;;;;;;-0.91;46.14;96278.06;5013013;28;20053;-83
2022/01/24 12:34:42;;;;;;;20.60;8.63;;;;;;;-0.58;46.31;96310.66;5031172;28;20038;-81
2022/01/24 12:37:11;;;;;;;13.43;7.43;;;;;;;-0.77;47.10;96248.66;5009709;28;20042;-82
2022/01/24 12:39:49;;;;;;;19.15;7.88;;;;;;;-0.83;46.88;96348.31;5014877;28;20547;-81
2022/01/24 12:42:28;;;;;;;21.70;10.52;;;;;;;-0.17;47.33;96349.41;5029544;28;20067;-82
2022/01/24 12:47:38;;;;;;;18.17;7.85;;;;;;;-1.19;49.71;96307.22;5015433;28;20107;-80
2022/01/24 12:50:06;;;;;;;26.60;9.10;;;;;;;-1.21;49.41;96279.75;5013692;28;20030;-81
2022/01/24 12:52:31;;;;;;;18.23;8.70;;;;;;;-0.68;49.17;96309.28;5013930;28;20054;-81
2022/01/24 12:55:00;;;;;;;15.55;8.30;;;;;;;-0.02;48.01;96352.81;5014249;28;20037;-82
2022/01/24 12:57:32;;;;;;;23.55;9.20;;;;;;;-1.74;47.42;96179.94;5029688;28;20036;-81
2022/01/24 13:00:01;;;;;;;22.58;9.13;;;;;;;-0.95;46.08;96301.03;5014431;28;20025;-82
2022/01/24 13:02:32;;;;;;;28.02;11.63;;;;;;;-1.04;47.24;96249.19;5013171;28;20063;-81
2022/01/24 13:05:03;;;;;;;18.90;9.32;;;;;;;-0.17;47.12;96345.00;5012581;28;20037;-81
2022/01/24 13:07:31;;;;;;;22.75;9.70;;;;;;;-0.81;47.58;96339.34;5015314;28;20045;-82
2022/01/24 13:10:21;;;;;;;16.00;9.52;;;;;;;-1.29;47.56;96350.06;5013275;28;20045;-82
2022/01/24 13:12:55;;;;;;;19.15;9.52;;;;;;;-1.50;46.62;96340.25;5013358;28;20130;-81
2022/01/24 13:21:07;;;;;;;28.85;10.80;;;;;;;-1.69;49.01;96336.31;5015139;28;20508;-83
2022/01/24 13:23:32;;;;;;;24.95;12.15;;;;;;;-1.98;49.02;96302.25;5026957;28;20034;-81
2022/01/24 13:25:58;;;;;;;25.45;10.60;;;;;;;-1.79;50.34;96347.88;5011282;28;20045;-81
2022/01/24 13:28:23;;;;;;;35.50;12.02;;;;;;;-2.56;49.82;96198.69;5010994;28;20041;-82
2022/01/24 13:30:58;;;;;;;23.48;10.05;;;;;;;-1.60;49.05;96344.84;5009791;28;20068;-82
2022/01/24 13:33:25;;;;;;;22.55;10.40;;;;;;;-1.41;49.81;96341.84;5026704;28;20041;-82
2022/01/24 13:35:55;;;;;;;30.90;10.93;;;;;;;-1.19;49.08;96350.66;5011521;28;20461;-81
2022/01/24 13:38:22;;;;;;;21.42;9.82;;;;;;;-1.16;49.29;96352.94;5012412;28;20140;-82